Spearsville, Indiana
Current Conditions -  °F | °C
As of 7:15 PM on Wednesday 22 Oct 2014 (Local Time) from K1II Reporting Station
Clear Clear  
Wind Chill: 52°   Ceiling: Unl
Heat Index: 52°   Visibility: 10mi
Dew Point: 39°   Wind: 3mph
Humidity: 62%   Direction: 40°NE
Pressure: 30.26"   Gusts: NA
Location:  39.3709°N, 86.1938°W
Report Text: K1II 222315Z AUTO 04003KT 10SM CLR 11/04 A3026 RMK AO2
Loading
Personal Weather Stations






























Interactive Weather Map
Tropical Storm Tracking
New forecast layout! Learn more

10-Day Weather Forecast

Advertisements
Track Severe Weather on mobile